FW7456 Weather Reports


Display with metric or nautical units.
time (UTC)temp
F
wind
direction
speed
MPH
gust
MPH
rain 1hr
in
rain 24hr
in
rain mn
in
humidity
%
barometer
mb
20220707010101 73 107 1.0 2.0 0.03 1.14 1.12 96 1016.7
20220707004605 73 0 0.0 3.0 0.02 1.13 1.11 96 1016.7
20220707003101 73 107 1.0 4.0 0.00 1.11 1.09 94 1017.3
20220707001603 72 0 0.0 3.0 0.00 1.11 1.09 95 1017.4
20220707000103 74 217 0.0 2.0 0.00 1.11 1.09 92 1017.4
20220706234603 74 0 2.0 5.0 0.00 1.86 1.09 91 1017.3
20220706233057 74 124 2.0 8.0 0.00 1.86 1.09 92 1017.4
20220706231601 73 0 1.0 4.0 0.00 1.86 1.09 92 1017.4
20220706230106 73 271 3.0 7.0 0.00 1.86 1.09 91 1017.4
20220706224602 72 234 7.0 13.0 0.00 1.86 1.09 94 1017.0
20220706223108 72 284 5.0 9.0 0.00 1.86 1.09 94 1016.9
20220706221605 72 0 0.0 4.0 0.00 1.86 1.09 93 1016.8
20220706220107 72 196 1.0 3.0 0.01 1.86 1.09 94 1016.4
20220706214606 72 198 3.0 11.0 0.01 1.86 1.09 93 1016.7
20220706213105 72 65 2.0 12.0 0.03 1.86 1.09 92 1016.5
20220706211604 72 182 5.0 22.0 0.35 1.86 1.09 93 1016.8
20220706210108 73 169 12.0 23.0 0.85 1.85 1.08 92 1017.1
20220706204603 72 284 3.0 11.0 1.08 1.85 1.08 92 1016.6
20220706203103 73 132 6.0 17.0 1.05 1.83 1.05 92 1016.7
20220706201559 72 91 13.0 34.0 0.74 1.51 0.74 92 1016.8
20220706200107 74 355 21.0 40.0 0.22 0.99 0.22 85 1017.0
20220706194603 82 15 5.0 19.0 0.00 0.77 0.00 66 1016.4
20220706193107 92 135 4.0 13.0 0.00 0.77 0.00 58 1016.2
20220706191610 91 221 6.0 16.0 0.00 0.77 0.00 58 1015.9
20220706190102 94 202 6.0 12.0 0.00 0.77 0.00 56 1015.9
20220706184602 92 211 7.0 15.0 0.00 0.77 0.00 55 1016.2
20220706183105 92 209 4.0 10.0 0.00 0.77 0.00 58 1016.6
20220706181602 92 232 7.0 15.0 0.00 0.77 0.00 58 1016.6
20220706180104 90 184 5.0 11.0 0.00 0.77 0.00 63 1017.0
20220706174603 91 205 7.0 14.0 0.00 0.77 0.00 62 1017.4
20220706173104 90 175 8.0 12.0 0.00 0.77 0.00 62 1017.5
20220706171603 90 206 4.0 14.0 0.00 0.77 0.00 62 1017.6
20220706170109 89 125 6.0 14.0 0.00 0.77 0.00 65 1017.7
20220706164603 88 215 7.0 12.0 0.00 0.77 0.00 68 1017.8
20220706163104 88 194 8.0 14.0 0.00 0.77 0.00 68 1018.1
20220706161610 88 0 6.0 12.0 0.00 0.77 0.00 72 1018.1
20220706160105 87 192 6.0 16.0 0.00 0.77 0.00 70 1018.1
20220706154606 87 209 5.0 11.0 0.00 0.77 0.00 72 1018.0
20220706153104 88 246 5.0 9.0 0.00 0.77 0.00 70 1017.9
20220706151611 87 244 4.0 8.0 0.00 0.77 0.00 72 1018.1
20220706150104 86 135 3.0 8.0 0.00 0.77 0.00 75 1018.2
20220706144605 84 115 5.0 9.0 0.00 0.77 0.00 78 1018.2
20220706143111 85 105 2.0 4.0 0.00 0.77 0.00 76 1018.1
20220706141603 84 0 2.0 7.0 0.00 0.77 0.00 78 1018.2
20220706140116 81 160 4.0 6.0 0.00 0.77 0.00 82 1018.3
20220706134609 80 165 4.0 7.0 0.00 0.77 0.00 83 1018.4
20220706133107 79 152 4.0 9.0 0.00 0.77 0.00 83 1018.2
20220706131605 80 212 1.0 4.0 0.00 0.77 0.00 81 1018.2
20220706130108 79 239 2.0 4.0 0.00 0.77 0.00 84 1018.2
20220706124623 77 206 0.0 2.0 0.00 0.77 0.00 88 1018.3
20220706123108 76 0 0.0 0.0 0.00 0.77 0.00 88 1018.2
20220706121604 74 0 0.0 0.0 0.00 0.77 0.00 93 1018.0
20220706120104 71 0 0.0 0.0 0.00 0.77 0.00 96 1018.1
20220706114605 70 0 0.0 2.0 0.00 0.77 0.00 97 1018.0
20220706113104 69 0 0.0 0.0 0.00 0.77 0.00 97 1017.9
20220706111607 68 0 0.0 1.0 0.00 0.77 0.00 97 1017.7
20220706110105 67 336 1.0 2.0 0.00 0.77 0.00 98 1017.7
20220706104607 66 336 2.0 3.0 0.00 0.77 0.00 97 1017.7
20220706103104 66 0 0.0 2.0 0.00 0.77 0.00 97 1017.9
20220706101612 66 224 0.0 2.0 0.00 0.77 0.00 97 1017.8
20220706100105 67 46 2.0 3.0 0.00 0.77 0.00 97 1017.8
20220706094607 68 0 0.0 7.0 0.00 0.77 0.00 97 1017.7
20220706093107 68 111 3.0 7.0 0.00 0.77 0.00 97 1017.9
20220706091605 67 181 2.0 3.0 0.00 0.77 0.00 97 1017.9
20220706090104 67 0 0.0 2.0 0.00 0.77 0.00 97 1017.9
20220706084602 66 0 0.0 0.0 0.00 0.77 0.00 97 1018.1
20220706083104 66 0 0.0 0.0 0.00 0.77 0.00 97 1018.2
20220706081604 66 181 1.0 4.0 0.00 0.77 0.00 96 1018.1
20220706080056 67 0 1.0 3.0 0.00 0.77 0.00 97 1018.3
20220706074602 67 0 0.0 3.0 0.00 0.77 0.00 96 1018.2
20220706073124 67 0 0.0 4.0 0.00 0.77 0.00 97 1018.4
20220706071603 67 205 0.0 3.0 0.00 0.77 0.00 96 1018.4
20220706070110 67 205 1.0 3.0 0.00 0.77 0.00 96 1018.3
20220706064610 68 205 1.0 4.0 0.00 0.77 0.00 95 1018.5
20220706063105 68 144 2.0 6.0 0.00 0.77 0.00 96 1018.5
20220706061610 68 327 0.0 3.0 0.00 0.77 0.00 96 1018.6
20220706060109 68 327 0.0 2.0 0.00 0.77 0.00 96 1018.8
20220706054600 68 327 0.0 4.0 0.00 0.77 0.00 96 1019.0
20220706053106 68 238 0.0 4.0 0.00 0.77 0.00 96 1019.0
20220706051607 68 238 0.0 3.0 0.00 0.77 0.00 96 1018.8
20220706050104 68 0 0.0 2.0 0.00 0.77 0.00 97 1018.8
20220706044602 68 238 2.0 5.0 0.00 0.77 0.00 96 1018.9
20220706043106 68 245 2.0 6.0 0.00 0.77 0.00 97 1018.7
20220706041607 68 318 3.0 5.0 0.00 0.77 0.00 97 1018.6
20220706040110 68 270 1.0 4.0 0.00 0.77 0.00 96 1018.5
20220706034612 68 0 0.0 0.0 0.00 0.79 0.77 96 1018.5
20220706033106 68 269 1.0 3.0 0.00 0.79 0.77 96 1018.6
20220706031610 68 320 2.0 4.0 0.00 0.79 0.77 96 1018.6
20220706030107 69 0 1.0 2.0 0.00 0.79 0.77 96 1019.1
20220706024605 69 186 3.0 6.0 0.01 0.79 0.77 96 1019.2
20220706023106 69 313 2.0 5.0 0.01 0.79 0.77 96 1019.5
20220706021551 69 346 0.0 4.0 0.01 0.79 0.77 96 1019.8
20220706020103 69 0 0.0 6.0 0.02 0.79 0.77 96 1018.8
20220706014553 69 219 1.0 7.0 0.01 0.81 0.76 96 1018.5
20220706013100 69 138 5.0 13.0 0.01 0.81 0.76 96 1018.2
20220706011556 70 221 1.0 3.0 0.01 0.81 0.76 96 1018.3